createdAt,value
2023-05-13T00:01:19.692Z,9.99
2023-05-13T00:03:47.158Z,10.09
2023-05-13T00:06:14.026Z,9.89
2023-05-13T00:08:40.569Z,9.84
2023-05-13T00:11:07.761Z,9.89
2023-05-13T00:13:34.356Z,9.81
2023-05-13T00:16:01.118Z,9.64
2023-05-13T00:18:27.719Z,9.67
2023-05-13T00:20:54.349Z,9.69
2023-05-13T00:23:20.895Z,9.62
2023-05-13T00:25:47.396Z,9.53
2023-05-13T00:28:15.097Z,9.45
2023-05-13T00:30:45.783Z,9.51
2023-05-13T00:33:12.879Z,9.38
2023-05-13T00:35:39.509Z,9.46
2023-05-13T00:38:06.946Z,9.41
2023-05-13T00:40:37.373Z,9.41
2023-05-13T00:43:03.952Z,9.27
2023-05-13T00:45:30.666Z,9.23
2023-05-13T00:47:58.169Z,9.24
2023-05-13T00:50:24.967Z,9.26
2023-05-13T00:52:51.887Z,9.22
2023-05-13T00:55:18.506Z,9.10
2023-05-13T00:57:45.023Z,9.08
2023-05-13T01:00:12.365Z,9.25
2023-05-13T01:03:01.483Z,9.06
2023-05-13T01:06:05.215Z,9.04
2023-05-13T01:08:51.622Z,8.96
2023-05-13T01:11:22.881Z,9.04
2023-05-13T01:13:57.132Z,9.03
2023-05-13T01:16:45.339Z,9.04
2023-05-13T01:19:36.914Z,8.99
2023-05-13T01:22:04.810Z,8.97
2023-05-13T01:24:31.377Z,8.99
2023-05-13T01:26:58.338Z,8.94
2023-05-13T01:29:25.016Z,8.83
2023-05-13T01:31:52.953Z,8.87
2023-05-13T01:34:22.474Z,8.90
2023-05-13T01:36:49.180Z,8.82
2023-05-13T01:39:17.984Z,8.81
2023-05-13T01:41:44.914Z,8.65
2023-05-13T01:44:11.489Z,8.64
2023-05-13T01:46:43.727Z,8.51
2023-05-13T01:49:10.311Z,8.58
2023-05-13T01:51:37.881Z,8.74
2023-05-13T01:54:06.260Z,8.58
2023-05-13T01:56:32.864Z,8.47
2023-05-13T01:58:59.373Z,8.39
2023-05-13T02:01:25.938Z,8.52
2023-05-13T02:03:52.559Z,8.62
2023-05-13T02:06:19.608Z,8.46
2023-05-13T02:08:46.126Z,8.35
2023-05-13T02:11:12.694Z,8.28
2023-05-13T02:13:39.224Z,8.31
2023-05-13T02:16:05.899Z,8.28
2023-05-13T02:18:32.448Z,8.25
2023-05-13T02:20:59.028Z,8.32
2023-05-13T02:23:25.687Z,8.38
2023-05-13T02:25:52.261Z,8.30
2023-05-13T02:28:19.078Z,8.40
2023-05-13T02:30:45.615Z,8.19
2023-05-13T02:33:12.810Z,8.19
2023-05-13T02:35:39.485Z,8.18
2023-05-13T02:38:06.019Z,8.17
2023-05-13T02:40:32.535Z,8.25
2023-05-13T02:42:59.082Z,8.31
2023-05-13T02:45:25.685Z,8.21
2023-05-13T02:47:52.360Z,8.19
2023-05-13T02:50:19.232Z,8.10
2023-05-13T02:52:45.937Z,8.07
2023-05-13T02:55:12.604Z,8.10
2023-05-13T02:57:39.254Z,8.06
2023-05-13T03:00:06.731Z,8.07
2023-05-13T03:02:35.085Z,8.00
2023-05-13T03:05:01.741Z,8.08
2023-05-13T03:07:28.251Z,8.00
2023-05-13T03:10:00.863Z,8.08
2023-05-13T03:12:27.445Z,8.23
2023-05-13T03:14:55.550Z,8.16
2023-05-13T03:17:25.628Z,8.17
2023-05-13T03:19:52.211Z,8.05
2023-05-13T03:22:18.828Z,7.96
2023-05-13T03:24:50.871Z,8.12
2023-05-13T03:27:23.432Z,7.97
2023-05-13T03:29:50.009Z,8.10
2023-05-13T03:32:16.549Z,8.12
2023-05-13T03:34:43.094Z,8.07
2023-05-13T03:37:10.012Z,7.95
2023-05-13T03:39:36.559Z,8.00
2023-05-13T03:42:03.181Z,8.02
2023-05-13T03:44:29.766Z,7.92
2023-05-13T03:46:56.401Z,7.93
2023-05-13T03:49:23.233Z,7.98
2023-05-13T03:51:49.756Z,8.05
2023-05-13T03:54:16.353Z,8.00
2023-05-13T03:56:42.871Z,8.07
2023-05-13T03:59:09.414Z,7.93
2023-05-13T04:01:36.306Z,7.96
2023-05-13T04:04:02.836Z,7.79
2023-05-13T04:06:29.360Z,7.90
2023-05-13T04:08:55.898Z,7.84
2023-05-13T04:11:22.568Z,7.89
2023-05-13T04:13:49.120Z,7.95
2023-05-13T04:16:15.743Z,7.97
2023-05-13T04:18:42.427Z,8.04
2023-05-13T04:21:10.131Z,8.08
2023-05-13T04:23:36.753Z,8.23
2023-05-13T04:26:03.356Z,8.16
2023-05-13T04:28:29.928Z,8.13
2023-05-13T04:30:56.501Z,8.18
2023-05-13T04:33:23.071Z,8.18
2023-05-13T04:35:49.591Z,8.31
2023-05-13T04:38:16.161Z,8.38
2023-05-13T04:40:44.127Z,8.50
2023-05-13T04:43:13.633Z,8.65
2023-05-13T04:45:40.267Z,8.62
2023-05-13T04:48:07.131Z,8.65
2023-05-13T04:50:33.752Z,8.56
2023-05-13T04:53:00.860Z,8.58
2023-05-13T04:55:27.933Z,8.56
2023-05-13T04:57:54.662Z,8.55
2023-05-13T05:00:21.325Z,8.56
2023-05-13T05:02:48.284Z,8.69
2023-05-13T05:05:16.766Z,8.71
2023-05-13T05:07:44.859Z,8.75
2023-05-13T05:10:11.384Z,8.84
2023-05-13T05:12:38.235Z,8.87
2023-05-13T05:15:05.898Z,9.01
2023-05-13T05:17:33.869Z,9.04
2023-05-13T05:20:00.787Z,9.19
2023-05-13T05:22:27.443Z,9.23
2023-05-13T05:24:54.038Z,9.28
2023-05-13T05:27:20.680Z,9.40
2023-05-13T05:29:47.225Z,9.41
2023-05-13T05:32:13.964Z,9.58
2023-05-13T05:34:40.985Z,9.79
2023-05-13T05:37:07.562Z,9.81
2023-05-13T05:39:35.205Z,10.01
2023-05-13T05:42:01.946Z,9.99
2023-05-13T05:44:28.453Z,10.14
2023-05-13T05:46:55.331Z,10.24
2023-05-13T05:49:21.928Z,10.34
2023-05-13T05:51:48.538Z,10.39
2023-05-13T05:54:15.116Z,10.64
2023-05-13T05:56:41.627Z,10.64
2023-05-13T05:59:08.142Z,10.68
2023-05-13T06:01:36.757Z,10.77
2023-05-13T06:04:04.331Z,10.82
2023-05-13T06:06:32.372Z,10.92
2023-05-13T06:08:58.968Z,11.17
2023-05-13T06:11:25.641Z,11.18
2023-05-13T06:13:53.246Z,11.19
2023-05-13T06:16:19.843Z,11.52
2023-05-13T06:18:46.387Z,11.43
2023-05-13T06:21:12.924Z,11.48
2023-05-13T06:23:39.956Z,11.61
2023-05-13T06:26:06.658Z,11.78
2023-05-13T06:28:33.159Z,11.77
2023-05-13T06:30:59.688Z,11.75
2023-05-13T06:33:26.356Z,11.84
2023-05-13T06:35:53.378Z,11.85
2023-05-13T06:38:19.989Z,11.91
2023-05-13T06:40:46.545Z,11.98
2023-05-13T06:43:14.687Z,12.12
2023-05-13T06:45:41.436Z,12.08
2023-05-13T06:48:08.277Z,12.27
2023-05-13T06:50:34.905Z,12.27
2023-05-13T06:53:01.618Z,12.34
2023-05-13T06:55:28.169Z,12.45
2023-05-13T06:57:54.723Z,12.51
2023-05-13T07:00:21.713Z,12.65
2023-05-13T07:02:48.390Z,12.75
2023-05-13T07:05:14.925Z,12.73
2023-05-13T07:07:43.275Z,12.69
2023-05-13T07:10:10.328Z,12.69
2023-05-13T07:12:37.020Z,12.71
2023-05-13T07:15:03.868Z,12.83
2023-05-13T07:17:31.393Z,12.89
2023-05-13T07:19:58.235Z,12.83
2023-05-13T07:22:25.064Z,12.99
2023-05-13T07:24:51.613Z,13.01
2023-05-13T07:27:21.070Z,13.07
2023-05-13T07:29:50.690Z,13.16
2023-05-13T07:32:17.305Z,13.21
2023-05-13T07:34:44.382Z,13.20
2023-05-13T07:37:11.161Z,13.47
2023-05-13T07:39:37.746Z,13.42
2023-05-13T07:42:04.377Z,13.50
2023-05-13T07:44:31.053Z,13.63
2023-05-13T07:46:57.614Z,13.76
2023-05-13T07:49:24.177Z,13.86
2023-05-13T07:51:50.754Z,13.93
2023-05-13T07:54:18.370Z,13.90
2023-05-13T07:56:46.588Z,13.86
2023-05-13T07:59:13.228Z,13.97
2023-05-13T08:01:39.785Z,14.12
2023-05-13T08:04:06.593Z,14.25
2023-05-13T08:06:33.202Z,14.30
2023-05-13T08:08:59.994Z,14.56
2023-05-13T08:11:26.900Z,14.74
2023-05-13T08:13:53.461Z,14.76
2023-05-13T08:16:20.251Z,14.71
2023-05-13T08:18:46.851Z,14.69
2023-05-13T08:21:13.396Z,14.93
2023-05-13T08:23:45.422Z,15.01
2023-05-13T08:26:13.045Z,15.15
2023-05-13T08:28:39.668Z,15.26
2023-05-13T08:31:06.450Z,15.37
2023-05-13T08:33:33.241Z,15.45
2023-05-13T08:36:00.641Z,15.54
2023-05-13T08:38:27.233Z,15.53
2023-05-13T08:40:54.080Z,15.75
2023-05-13T08:43:23.784Z,16.05
2023-05-13T08:45:52.276Z,16.16
2023-05-13T08:48:20.327Z,16.30
2023-05-13T08:50:47.910Z,16.16
2023-05-13T08:53:18.841Z,16.23
2023-05-13T08:55:45.695Z,16.32
2023-05-13T08:58:12.446Z,16.51
2023-05-13T09:00:39.798Z,16.51
2023-05-13T09:03:07.039Z,16.62
2023-05-13T09:05:35.644Z,16.62
2023-05-13T09:08:10.671Z,16.76
2023-05-13T09:10:37.813Z,16.90
2023-05-13T09:13:05.968Z,17.01
2023-05-13T09:15:33.114Z,17.04
2023-05-13T09:18:07.452Z,16.94
2023-05-13T09:20:35.283Z,17.49
2023-05-13T09:23:07.122Z,17.63
2023-05-13T09:25:34.197Z,17.91
2023-05-13T09:28:03.394Z,18.86
2023-05-13T09:30:40.193Z,19.19
2023-05-13T09:33:13.885Z,18.56
2023-05-13T09:35:42.469Z,18.46
2023-05-13T09:38:18.517Z,19.31
2023-05-13T09:40:51.555Z,17.87
2023-05-13T09:43:22.721Z,17.69
2023-05-13T09:45:56.876Z,18.22
2023-05-13T09:48:28.752Z,18.98
2023-05-13T09:50:57.874Z,18.55
2023-05-13T09:53:25.672Z,18.94
2023-05-13T09:55:54.448Z,19.28
2023-05-13T09:58:22.444Z,19.15
2023-05-13T10:00:49.242Z,19.50
2023-05-13T10:03:19.259Z,19.75
2023-05-13T10:05:46.500Z,18.88
2023-05-13T10:08:15.170Z,19.73
2023-05-13T10:10:45.476Z,19.93
2023-05-13T10:13:18.176Z,20.27
2023-05-13T10:15:53.010Z,19.79
2023-05-13T10:18:21.368Z,19.95
2023-05-13T10:20:53.225Z,20.58
2023-05-13T10:23:21.497Z,20.61
2023-05-13T10:25:48.409Z,20.51
2023-05-13T10:28:16.671Z,20.00
2023-05-13T10:30:44.417Z,20.14
2023-05-13T10:33:11.452Z,20.16
2023-05-13T10:35:42.775Z,20.26
2023-05-13T10:38:17.026Z,21.19
2023-05-13T10:41:05.188Z,20.91
2023-05-13T10:43:32.885Z,21.65
2023-05-13T10:46:04.977Z,21.49
2023-05-13T10:48:54.963Z,21.75
2023-05-13T10:51:24.670Z,21.43
2023-05-13T10:53:56.153Z,21.53
2023-05-13T10:56:27.012Z,20.96
2023-05-13T10:59:02.612Z,21.41
2023-05-13T11:01:45.967Z,20.86
2023-05-13T11:04:17.504Z,19.91
2023-05-13T11:06:48.371Z,19.69
2023-05-13T11:09:21.027Z,19.64
2023-05-13T11:11:49.212Z,19.49
2023-05-13T11:14:17.702Z,19.20
2023-05-13T11:17:02.724Z,18.99
2023-05-13T11:19:32.946Z,19.36
2023-05-13T11:22:08.756Z,19.56
2023-05-13T11:24:36.488Z,19.92
2023-05-13T11:27:17.475Z,20.49
2023-05-13T11:29:57.887Z,20.50
2023-05-13T11:32:53.326Z,20.54
2023-05-13T11:35:21.468Z,20.72
2023-05-13T11:37:49.263Z,20.39
2023-05-13T11:40:23.161Z,20.36
2023-05-13T11:42:50.560Z,20.17
2023-05-13T11:45:17.989Z,19.84
2023-05-13T11:47:44.935Z,20.68
2023-05-13T11:50:23.005Z,20.21
2023-05-13T11:52:54.808Z,20.48
2023-05-13T11:55:39.511Z,20.13
2023-05-13T11:58:06.093Z,19.94
2023-05-13T12:00:34.318Z,20.47
2023-05-13T12:03:13.296Z,19.84
2023-05-13T12:05:40.141Z,20.69
2023-05-13T12:08:10.614Z,20.54
2023-05-13T12:10:43.324Z,19.95
2023-05-13T12:13:10.038Z,20.40
2023-05-13T12:15:36.775Z,19.89
2023-05-13T12:18:03.754Z,19.74
2023-05-13T12:20:30.342Z,19.71
2023-05-13T12:22:57.111Z,19.99
2023-05-13T12:25:47.876Z,20.22
2023-05-13T12:28:19.952Z,20.45
2023-05-13T12:30:57.105Z,20.37
2023-05-13T12:33:29.048Z,19.56
2023-05-13T12:36:25.904Z,20.05
2023-05-13T12:39:04.093Z,19.10
2023-05-13T12:41:32.823Z,19.56
2023-05-13T12:44:01.020Z,19.68
2023-05-13T12:46:28.617Z,19.46
2023-05-13T12:49:00.187Z,19.71
2023-05-13T12:51:27.526Z,19.59
2023-05-13T12:53:54.618Z,19.88
2023-05-13T12:56:25.396Z,19.27
2023-05-13T12:58:54.162Z,19.08
2023-05-13T13:01:21.846Z,19.23
2023-05-13T13:03:48.510Z,19.39
2023-05-13T13:06:15.380Z,20.39
2023-05-13T13:08:42.373Z,20.78
2023-05-13T13:11:09.290Z,20.16
2023-05-13T13:13:37.360Z,19.79
2023-05-13T13:16:06.210Z,19.44
2023-05-13T13:18:32.935Z,18.52
2023-05-13T13:20:59.557Z,19.17
2023-05-13T13:23:26.141Z,19.79
2023-05-13T13:25:52.684Z,19.53
2023-05-13T13:28:19.260Z,19.90
2023-05-13T13:30:47.280Z,20.04
2023-05-13T13:33:15.466Z,19.78
2023-05-13T13:35:47.011Z,19.87
2023-05-13T13:38:14.034Z,19.47
2023-05-13T13:40:40.945Z,20.07
2023-05-13T13:43:08.050Z,19.74
2023-05-13T13:45:35.549Z,19.92
2023-05-13T13:48:02.769Z,19.79
2023-05-13T13:50:29.454Z,19.60
2023-05-13T13:52:56.001Z,19.79
2023-05-13T13:55:23.942Z,19.91
2023-05-13T13:57:51.045Z,19.21
2023-05-13T14:00:18.101Z,18.56
2023-05-13T14:02:44.697Z,18.26
2023-05-13T14:05:12.914Z,18.54
2023-05-13T14:07:40.112Z,19.02
2023-05-13T14:10:07.614Z,18.98
2023-05-13T14:12:35.875Z,18.79
2023-05-13T14:15:02.849Z,18.92
2023-05-13T14:17:29.551Z,18.51
2023-05-13T14:19:56.142Z,18.92
2023-05-13T14:22:24.150Z,18.04
2023-05-13T14:24:52.364Z,17.77
2023-05-13T14:27:19.846Z,18.39
2023-05-13T14:29:47.740Z,18.85
2023-05-13T14:32:14.412Z,18.43
2023-05-13T14:34:41.057Z,18.77
2023-05-13T14:37:07.685Z,18.71
2023-05-13T14:39:34.300Z,18.37
2023-05-13T14:42:01.179Z,17.94
2023-05-13T14:44:27.725Z,17.92
2023-05-13T14:46:54.369Z,18.63
2023-05-13T14:49:20.906Z,18.45
2023-05-13T14:51:47.467Z,18.79
2023-05-13T14:54:14.238Z,18.59
2023-05-13T14:56:41.537Z,18.64
2023-05-13T14:59:08.440Z,18.43
2023-05-13T15:01:35.190Z,18.78
2023-05-13T15:04:02.156Z,18.58
2023-05-13T15:06:29.240Z,18.48
2023-05-13T15:08:56.423Z,18.78
2023-05-13T15:11:23.377Z,18.83
2023-05-13T15:13:49.921Z,18.39
2023-05-13T15:16:16.472Z,17.91
2023-05-13T15:18:43.123Z,17.89
2023-05-13T15:21:09.700Z,17.71
2023-05-13T15:23:36.467Z,17.79
2023-05-13T15:26:03.101Z,18.36
2023-05-13T15:28:29.679Z,18.09
2023-05-13T15:30:56.364Z,17.81
2023-05-13T15:33:22.948Z,17.35
2023-05-13T15:35:49.548Z,17.48
2023-05-13T15:38:16.906Z,17.18
2023-05-13T15:40:43.600Z,16.69
2023-05-13T15:43:10.170Z,16.57
2023-05-13T15:45:36.773Z,16.67
2023-05-13T15:48:03.471Z,16.75
2023-05-13T15:50:30.078Z,16.76
2023-05-13T15:52:56.648Z,16.73
2023-05-13T15:55:23.230Z,16.71
2023-05-13T15:57:50.602Z,16.76
2023-05-13T16:00:18.043Z,16.65
2023-05-13T16:02:44.752Z,16.56
2023-05-13T16:05:12.069Z,16.83
2023-05-13T16:07:38.619Z,16.69
2023-05-13T16:10:05.628Z,16.88
2023-05-13T16:12:32.206Z,16.84
2023-05-13T16:14:58.867Z,16.65
2023-05-13T16:17:25.547Z,17.04
2023-05-13T16:19:52.293Z,16.97
2023-05-13T16:22:36.109Z,17.15
2023-05-13T16:25:05.408Z,16.77
2023-05-13T16:27:33.155Z,16.93
2023-05-13T16:30:00.906Z,16.75
2023-05-13T16:32:28.684Z,16.74
2023-05-13T16:34:55.991Z,16.56
2023-05-13T16:37:22.548Z,16.26
2023-05-13T16:39:49.113Z,16.27
2023-05-13T16:42:15.720Z,16.25
2023-05-13T16:44:42.301Z,16.01
2023-05-13T16:47:09.189Z,15.99
2023-05-13T16:49:36.805Z,15.90
2023-05-13T16:52:04.261Z,15.72
2023-05-13T16:54:31.150Z,15.46
2023-05-13T16:56:58.212Z,15.58
2023-05-13T16:59:26.733Z,15.36
2023-05-13T17:01:53.389Z,14.99
2023-05-13T17:04:21.261Z,14.86
2023-05-13T17:06:47.855Z,14.86
2023-05-13T17:09:14.472Z,14.65
2023-05-13T17:11:41.169Z,14.56
2023-05-13T17:14:07.804Z,14.51
2023-05-13T17:16:34.542Z,14.55
2023-05-13T17:19:01.152Z,14.43
2023-05-13T17:21:27.720Z,14.44
2023-05-13T17:23:54.326Z,14.51
2023-05-13T17:26:22.021Z,14.36
2023-05-13T17:28:49.675Z,14.35
2023-05-13T17:31:16.594Z,14.24
2023-05-13T17:33:43.426Z,14.26
2023-05-13T17:36:10.881Z,14.28
2023-05-13T17:38:37.944Z,14.28
2023-05-13T17:41:05.247Z,14.26
2023-05-13T17:43:31.892Z,14.18
2023-05-13T17:45:58.650Z,14.20
2023-05-13T17:48:26.585Z,14.21
2023-05-13T17:50:53.203Z,14.22
2023-05-13T17:53:20.601Z,14.27
2023-05-13T17:55:48.638Z,14.22
2023-05-13T17:58:16.345Z,14.18
2023-05-13T18:00:43.126Z,14.26
2023-05-13T18:03:09.755Z,14.24
2023-05-13T18:05:36.444Z,14.17
2023-05-13T18:08:03.045Z,14.19
2023-05-13T18:10:29.606Z,14.12
2023-05-13T18:12:56.167Z,14.08
2023-05-13T18:15:22.743Z,14.10
2023-05-13T18:17:49.949Z,14.07
2023-05-13T18:20:16.556Z,14.29
2023-05-13T18:22:43.120Z,14.16
2023-05-13T18:25:10.117Z,14.04
2023-05-13T18:27:36.623Z,14.07
2023-05-13T18:30:03.268Z,13.99
2023-05-13T18:32:29.831Z,13.95
2023-05-13T18:34:56.369Z,13.87
2023-05-13T18:37:22.902Z,13.86
2023-05-13T18:39:49.501Z,13.76
2023-05-13T18:42:16.037Z,13.69
2023-05-13T18:44:42.616Z,13.71
2023-05-13T18:47:09.192Z,13.74
2023-05-13T18:49:35.917Z,13.65
2023-05-13T18:52:02.532Z,13.70
2023-05-13T18:54:29.336Z,13.62
2023-05-13T18:56:56.277Z,13.53
2023-05-13T18:59:23.092Z,13.46
2023-05-13T19:01:49.895Z,13.32
2023-05-13T19:04:16.714Z,13.28
2023-05-13T19:06:43.389Z,13.18
2023-05-13T19:09:10.081Z,13.14
2023-05-13T19:11:36.662Z,13.08
2023-05-13T19:14:03.236Z,12.88
2023-05-13T19:16:29.975Z,12.72
2023-05-13T19:18:56.680Z,12.69
2023-05-13T19:21:28.637Z,12.58
2023-05-13T19:23:55.132Z,12.60
2023-05-13T19:26:22.280Z,12.60
2023-05-13T19:28:49.073Z,12.52
2023-05-13T19:31:15.616Z,12.36
2023-05-13T19:33:43.412Z,12.39
2023-05-13T19:36:11.226Z,12.35
2023-05-13T19:38:37.817Z,12.23
2023-05-13T19:41:04.344Z,12.53
2023-05-13T19:43:30.878Z,12.29
2023-05-13T19:45:57.685Z,12.24
2023-05-13T19:48:24.264Z,12.51
2023-05-13T19:50:53.452Z,12.34
2023-05-13T19:53:21.642Z,12.40
2023-05-13T19:55:48.230Z,12.41
2023-05-13T19:58:15.135Z,12.35
2023-05-13T20:00:43.927Z,12.26
2023-05-13T20:03:11.132Z,12.08
2023-05-13T20:05:40.825Z,11.88
2023-05-13T20:08:07.428Z,11.91
2023-05-13T20:10:36.941Z,11.71
2023-05-13T20:13:04.756Z,11.55
2023-05-13T20:15:32.118Z,11.50
2023-05-13T20:17:58.940Z,11.48
2023-05-13T20:20:25.780Z,11.46
2023-05-13T20:22:52.561Z,11.31
2023-05-13T20:25:19.388Z,11.35
2023-05-13T20:27:45.908Z,11.37
2023-05-13T20:30:13.202Z,11.18
2023-05-13T20:32:39.866Z,11.34
2023-05-13T20:35:07.553Z,11.14
2023-05-13T20:37:34.330Z,11.06
2023-05-13T20:40:01.004Z,11.11
2023-05-13T20:42:27.502Z,11.04
2023-05-13T20:44:54.047Z,11.05
2023-05-13T20:47:20.910Z,11.05
2023-05-13T20:49:47.507Z,11.17
2023-05-13T20:52:14.118Z,11.32
2023-05-13T20:54:40.733Z,11.41
2023-05-13T20:57:07.295Z,11.52
2023-05-13T20:59:33.801Z,11.61
2023-05-13T21:02:00.451Z,11.70
2023-05-13T21:04:27.192Z,11.70
2023-05-13T21:06:53.782Z,11.69
2023-05-13T21:09:20.375Z,11.71
2023-05-13T21:11:46.945Z,11.63
2023-05-13T21:14:13.546Z,11.62
2023-05-13T21:16:40.112Z,11.49
2023-05-13T21:19:06.737Z,11.48
2023-05-13T21:21:33.297Z,11.58
2023-05-13T21:23:59.836Z,11.70
2023-05-13T21:26:26.481Z,11.69
2023-05-13T21:28:53.005Z,11.73
2023-05-13T21:31:19.614Z,11.67
2023-05-13T21:33:46.172Z,11.61
2023-05-13T21:36:12.705Z,11.52
2023-05-13T21:38:39.333Z,11.60
2023-05-13T21:41:05.858Z,11.56
2023-05-13T21:43:32.377Z,11.53
2023-05-13T21:45:58.992Z,11.70
2023-05-13T21:48:25.892Z,11.63
2023-05-13T21:50:52.807Z,11.59
2023-05-13T21:53:19.553Z,11.59
2023-05-13T21:55:46.139Z,11.58
2023-05-13T21:58:12.923Z,11.54
2023-05-13T22:00:39.470Z,11.59
2023-05-13T22:03:06.257Z,11.54
2023-05-13T22:05:32.941Z,11.60
2023-05-13T22:08:01.807Z,11.61
2023-05-13T22:10:28.533Z,11.66
2023-05-13T22:12:55.054Z,11.66
2023-05-13T22:15:21.588Z,11.62
2023-05-13T22:17:50.648Z,11.59
2023-05-13T22:20:17.470Z,11.48
2023-05-13T22:22:43.986Z,11.47
2023-05-13T22:25:10.495Z,11.43
2023-05-13T22:27:37.179Z,11.47
2023-05-13T22:30:04.088Z,11.45
2023-05-13T22:32:30.709Z,11.46
2023-05-13T22:34:57.541Z,11.40
2023-05-13T22:37:24.067Z,11.51
2023-05-13T22:39:51.026Z,11.58
2023-05-13T22:42:17.628Z,11.52
2023-05-13T22:44:44.150Z,11.44
2023-05-13T22:47:10.889Z,11.50
2023-05-13T22:49:37.420Z,11.50
2023-05-13T22:52:06.489Z,11.41
2023-05-13T22:54:32.981Z,11.29
2023-05-13T22:56:59.510Z,11.25
2023-05-13T22:59:26.815Z,11.23
2023-05-13T23:01:53.400Z,11.18
2023-05-13T23:04:20.012Z,11.20
2023-05-13T23:06:46.550Z,11.21
2023-05-13T23:09:13.048Z,11.25
2023-05-13T23:11:39.570Z,11.26
2023-05-13T23:14:06.151Z,11.30
2023-05-13T23:16:32.686Z,11.32
2023-05-13T23:18:59.338Z,11.32
2023-05-13T23:21:26.097Z,11.36
2023-05-13T23:23:52.749Z,11.37
2023-05-13T23:26:19.264Z,11.44
2023-05-13T23:28:46.948Z,11.58
2023-05-13T23:31:13.618Z,11.63
2023-05-13T23:33:40.177Z,11.66
2023-05-13T23:36:06.880Z,11.61
2023-05-13T23:38:33.567Z,11.63
2023-05-13T23:41:00.123Z,11.63
2023-05-13T23:43:26.725Z,11.51
2023-05-13T23:45:53.323Z,11.57
2023-05-13T23:48:19.880Z,11.59
2023-05-13T23:50:46.438Z,11.63
2023-05-13T23:53:12.987Z,11.55
2023-05-13T23:55:39.544Z,11.45
2023-05-13T23:58:06.185Z,11.46
